EDMO 200150Z AUTO 17009KT 9999 // NCD 16/13 Q1024 EDMO 200120Z AUTO 17009KT 9999 // FEW078/// 16/13 Q1025 EDMO 200050Z AUTO 16006KT 9999 // FEW077/// 15/13 Q1025 EDMO 200020Z AUTO 14004KT 9999 // FEW110/// BKN130/// 16/13 Q1025 EDMO 192350Z AUTO 15005KT 120V180 9999 // FEW035/// SCT059/// BKN130/// 17/13 Q1025 EDMO 192320Z AUTO 04005KT 010V080 9999 // BKN130/// 18/13 Q1026 EDMO 192250Z AUTO 35006KT 270V030 9999 // SCT076/// BKN092/// 19/13 Q1026 EDMO 192220Z AUTO 32008KT 9999 // FEW046/// SCT067/// OVC082/// 18/12 Q1025 EDMO 192150Z AUTO 25005KT 9999 // SCT080/// OVC094/// 19/13 Q1024 EDMO 192120Z AUTO 23007KT 9999 // FEW120/// BKN140/// BKN170/// 19/12 Q1024 EDMO 192050Z AUTO 22006KT 9999 // FEW097/// BKN120/// BKN160/// 19/11 Q1024 EDMO 192020Z AUTO 21007KT 9999 // SCT130/// BKN150/// 20/12 Q1024 EDMO 191950Z AUTO 23008KT 9999 // FEW150/// 20/11 Q1023 EDMO 191920Z AUTO 26005KT 9999 // FEW190/// BKN220/// 22/10 Q1023 EDMO 191850Z AUTO 25011KT 9999 // BKN240/// 23/11 Q1023 EDMO 191820Z AUTO 27007KT 9999 // NCD 24/12 Q1022 EDMO 191750Z AUTO 26006KT 220V290 9999 // NCD 25/12 Q1022 EDMO 191720Z AUTO 24003KT 9999 // NCD 25/15 Q1022 EDMO 191650Z AUTO 24004KT 9999 // NCD 26/15 Q1022 EDMO 191620Z 23004KT 180V260 CAVOK 27/14 Q1021 EDMO 191550Z VRB05KT CAVOK 28/11 Q1021 EDMO 191520Z 24004KT 180V280 CAVOK 28/13 Q1021 EDMO 191450Z 29007KT 250V340 CAVOK 28/13 Q1022 EDMO 191420Z 27008KT CAVOK 28/13 Q1022 EDMO 191350Z 30008KT 260V320 CAVOK 28/15 Q1022 EDMO 191320Z 25011KT CAVOK 28/13 Q1022 EDMO 191250Z 26009KT 230V310 CAVOK 28/14 Q1022 EDMO 191220Z 29009KT 250V310 CAVOK 28/13 Q1022 EDMO 191150Z 25008KT 200V300 CAVOK 27/13 Q1022 EDMO 191120Z 25010KT CAVOK 27/15 Q1023 EDMO 191050Z 25007KT 210V280 CAVOK 26/15 Q1023 EDMO 191020Z 26008KT 230V300 CAVOK 25/14 Q1023 EDMO 190950Z 25006KT 210V280 CAVOK 24/14 Q1023 EDMO 190920Z 26006KT 210V290 CAVOK 24/13 Q1023 EDMO 190850Z 21005KT 180V250 CAVOK 23/13 Q1023 EDMO 190820Z 24004KT 200V280 CAVOK 22/12 Q1023 EDMO 190750Z 24003KT 140V270 CAVOK 20/13 Q1023 EDMO 190720Z 24003KT 160V280 CAVOK 18/12 Q1023 EDMO 190650Z 24003KT 210V290 CAVOK 16/11 Q1023 EDMO 190620Z 24003KT CAVOK 15/10 Q1023 EDMO 190550Z VRB01KT CAVOK 14/10 Q1023 EDMO 190520Z VRB01KT CAVOK 12/09 Q1023 EDMO 190450Z VRB01KT CAVOK 09/08 Q1023 EDMO 190420Z AUTO 00000KT 9999 // NCD 08/07 Q1022 EDMO 190350Z AUTO 12002KT 9999 // NCD 07/06 Q1022 EDMO 190320Z AUTO 00000KT 9999 // NCD 08/07 Q1022 EDMO 190250Z AUTO 11001KT 9999 // NCD 09/07 Q1022 EDMO 190220Z AUTO 05002KT 9999 // NCD 09/07 Q1022 EDMO 190150Z AUTO 06002KT 9999 // NCD 09/07 Q1022 EDMO 190120Z AUTO 04003KT 350V070 9999 // NCD 10/07 Q1022 EDMO 190050Z AUTO 06002KT 9999 // NCD 11/07 Q1022 EDMO 190020Z AUTO VRB02KT 9999 // NCD 11/07 Q1023 EDMO 182350Z AUTO VRB01KT 9999 // NCD 12/08 Q1023 EDMO 182320Z AUTO VRB02KT 9999 // NCD 12/08 Q1023 EDMO 182250Z AUTO VRB02KT 9999 // NCD 13/08 Q1023 EDMO 182220Z AUTO 10005KT 9999 // NCD 12/08 Q1024 EDMO 182150Z AUTO 08006KT 9999 // NCD 14/08 Q1024 EDMO 182120Z AUTO 10005KT 9999 // NCD 14/08 Q1024 EDMO 182050Z AUTO 11004KT 9999 // NCD 15/08 Q1024 EDMO 182020Z AUTO 10006KT 9999 // NCD 15/07 Q1024 EDMO 181950Z AUTO 10006KT 9999 // NCD 16/08 Q1024 EDMO 181920Z AUTO 08008KT 9999 // NCD 18/08 Q1024 EDMO 181850Z AUTO 08008KT 9999 // NCD 18/08 Q1024 EDMO 181820Z 07006KT 040V100 CAVOK 19/09 Q1024 EDMO 181750Z 06009KT CAVOK 20/10 Q1023 EDMO 181720Z AUTO 05011KT 9999 // NCD 21/10 Q1023 EDMO 181650Z AUTO 05011KT 9999 // NCD 22/10 Q1023 EDMO 181620Z 05011KT CAVOK 22/11 Q1023 EDMO 181550Z 08010KT 040V110 CAVOK 23/11 Q1023 EDMO 181520Z 05010KT CAVOK 23/11 Q1023 EDMO 181450Z 06010KT 020V120 CAVOK 23/11 Q1023 EDMO 181420Z 05011KT 020V080 CAVOK 23/12 Q1023

METAR Messwerte "OBERPFAFFENHOFEN" EDMO

Zurück zur Übersicht

Ortsname
Ländercode / m ü. NN
Zeit Temperatur Taupunkt Rel.
Luftfeuchte
Luftdruck:
Altimeter
NN
Station
Wind in Beaufort
(Knoten)
Sichtweite
(Meter)
Wolken
(Meter über Grund)
Wettererscheinung
OBERPFAFFENHOFEN
DE 587
Fr 20.05. 03:50161382 %1024
1024
955
S 3 (9)>= 10000  
OBERPFAFFENHOFEN
DE 587
Fr 20.05. 03:20161382 %1025
1025
956
S 3 (9)>= 10000Leicht bewölkt (2400) 
OBERPFAFFENHOFEN
DE 587
Fr 20.05. 02:50151388 %1025
1025
956
SSO 2 (6)>= 10000Leicht bewölkt (2300) 
OBERPFAFFENHOFEN
DE 587
Fr 20.05. 02:20161382 %1025
1025
956
SO 2 (4)>= 10000Stark bewölkt (4000)
Leicht bewölkt (3400)
 
OBERPFAFFENHOFEN
DE 587
Fr 20.05. 01:50171377 %1025
1025
956
SSO 2 (5)
OSO - S
>= 10000Stark bewölkt (4000)
Wolkig (1800)
Leicht bewölkt (1100)
 
OBERPFAFFENHOFEN
DE 587
Fr 20.05. 01:20181373 %1026
1025
957
NO 2 (5)
N - O
>= 10000Stark bewölkt (4000) 
OBERPFAFFENHOFEN
DE 587
Fr 20.05. 00:50191368 %1026
1025
957
N 2 (6)
W - NNO
>= 10000Stark bewölkt (2800)
Wolkig (2300)
 
OBERPFAFFENHOFEN
DE 587
Fr 20.05. 00:20181268 %1025
1024
956
NW 3 (8)>= 10000Bedeckt (2500)
Wolkig (2000)
Leicht bewölkt (1400)
 
OBERPFAFFENHOFEN
DE 587
Do 19.05. 23:50191368 %1024
1023
955
WSW 2 (5)>= 10000Bedeckt (2900)
Wolkig (2400)
 
OBERPFAFFENHOFEN
DE 587
Do 19.05. 23:20191264 %1024
1023
955
SW 3 (7)>= 10000Stark bewölkt (5200)
Stark bewölkt (4300)
Leicht bewölkt (3700)
 
OBERPFAFFENHOFEN
DE 587
Do 19.05. 22:50191160 %1024
1023
955
SW 2 (6)>= 10000Stark bewölkt (4900)
Stark bewölkt (3700)
Leicht bewölkt (3000)
 
OBERPFAFFENHOFEN
DE 587
Do 19.05. 22:20201260 %1024
1023
955
SSW 3 (7)>= 10000Stark bewölkt (4600)
Wolkig (4000)
 
OBERPFAFFENHOFEN
DE 587
Do 19.05. 21:50201156 %1023
1022
954
SW 3 (8)>= 10000Leicht bewölkt (4600) 
OBERPFAFFENHOFEN
DE 587
Do 19.05. 21:20221046 %1023
1021
954
W 2 (5)>= 10000Stark bewölkt (6700)
Leicht bewölkt (5800)
 
OBERPFAFFENHOFEN
DE 587
Do 19.05. 20:50231147 %1023
1021
954
WSW 4 (11)>= 10000Stark bewölkt (7300) 
OBERPFAFFENHOFEN
DE 587
Do 19.05. 20:20241247 %1022
1020
953
W 3 (7)>= 10000  
OBERPFAFFENHOFEN
DE 587
Do 19.05. 19:50251244 %1022
1020
953
W 2 (6)
SW - WNW
>= 10000  
OBERPFAFFENHOFEN
DE 587
Do 19.05. 19:20251554 %1022
1020
953
WSW 2 (3)>= 10000  
OBERPFAFFENHOFEN
DE 587
Do 19.05. 18:50261551 %1022
1019
953
WSW 2 (4)>= 10000  
OBERPFAFFENHOFEN
DE 587
Do 19.05. 18:20271445 %1021
1018
952
SW 2 (4)
S - W
>= 10000Nicht signifikant 
OBERPFAFFENHOFEN
DE 587
Do 19.05. 17:50281135 %1021
1018
952
Uml 2 (5)>= 10000Nicht signifikant 
OBERPFAFFENHOFEN
DE 587
Do 19.05. 17:20281340 %1021
1018
952
WSW 2 (4)
S - W
>= 10000Nicht signifikant 
OBERPFAFFENHOFEN
DE 587
Do 19.05. 16:50281340 %1022
1019
953
WNW 3 (7)
WSW - NNW
>= 10000Nicht signifikant 
OBERPFAFFENHOFEN
DE 587
Do 19.05. 16:20281340 %1022
1019
953
W 3 (8)>= 10000Nicht signifikant 
OBERPFAFFENHOFEN
DE 587
Do 19.05. 15:50281545 %1022
1019
953
WNW 3 (8)
W - NW
>= 10000Nicht signifikant 
OBERPFAFFENHOFEN
DE 587
Do 19.05. 15:20281340 %1022
1019
953
WSW 4 (11)>= 10000Nicht signifikant 
OBERPFAFFENHOFEN
DE 587
Do 19.05. 14:50281442 %1022
1019
953
W 3 (9)
SW - NW
>= 10000Nicht signifikant 
OBERPFAFFENHOFEN
DE 587
Do 19.05. 14:20281340 %1022
1019
953
WNW 3 (9)
WSW - NW
>= 10000Nicht signifikant 
OBERPFAFFENHOFEN
DE 587
Do 19.05. 13:50271342 %1022
1019
953
WSW 3 (8)
SSW - WNW
>= 10000Nicht signifikant 
OBERPFAFFENHOFEN
DE 587
Do 19.05. 13:20271548 %1023
1020
954
WSW 3 (10)>= 10000Nicht signifikant 
OBERPFAFFENHOFEN
DE 587
Do 19.05. 12:50261551 %1023
1020
954
WSW 3 (7)
SSW - W
>= 10000Nicht signifikant 
OBERPFAFFENHOFEN
DE 587
Do 19.05. 12:20251450 %1023
1021
954
W 3 (8)
SW - WNW
>= 10000Nicht signifikant 
OBERPFAFFENHOFEN
DE 587
Do 19.05. 11:50241454 %1023
1021
954
WSW 2 (6)
SSW - W
>= 10000Nicht signifikant 
OBERPFAFFENHOFEN
DE 587
Do 19.05. 11:20241350 %1023
1021
954
W 2 (6)
SSW - WNW
>= 10000Nicht signifikant 
OBERPFAFFENHOFEN
DE 587
Do 19.05. 10:50231353 %1023
1021
954
SSW 2 (5)
S - WSW
>= 10000Nicht signifikant 
OBERPFAFFENHOFEN
DE 587
Do 19.05. 10:20221253 %1023
1021
954
WSW 2 (4)
SSW - W
>= 10000Nicht signifikant 
OBERPFAFFENHOFEN
DE 587
Do 19.05. 09:50201364 %1023
1022
954
WSW 2 (3)
SO - W
>= 10000Nicht signifikant 
OBERPFAFFENHOFEN
DE 587
Do 19.05. 09:20181268 %1023
1022
954
WSW 2 (3)
SSO - W
>= 10000Nicht signifikant 
OBERPFAFFENHOFEN
DE 587
Do 19.05. 08:50161172 %1023
1023
954
WSW 2 (3)
SSW - WNW
>= 10000Nicht signifikant 
OBERPFAFFENHOFEN
DE 587
Do 19.05. 08:20151072 %1023
1023
954
WSW 2 (3)>= 10000Nicht signifikant 
OBERPFAFFENHOFEN
DE 587
Do 19.05. 07:50141077 %1023
1023
954
Uml 1 (1)>= 10000Nicht signifikant 
OBERPFAFFENHOFEN
DE 587
Do 19.05. 07:2012982 %1023
1024
954
Uml 1 (1)>= 10000Nicht signifikant 
OBERPFAFFENHOFEN
DE 587
Do 19.05. 06:509893 %1023
1025
954
Uml 1 (1)>= 10000Nicht signifikant 
OBERPFAFFENHOFEN
DE 587
Do 19.05. 06:208793 %1022
1024
953
Windstill>= 10000  
OBERPFAFFENHOFEN
DE 587
Do 19.05. 05:507693 %1022
1024
953
OSO 1 (2)>= 10000  
OBERPFAFFENHOFEN
DE 587
Do 19.05. 05:208793 %1022
1024
953
Windstill>= 10000  
OBERPFAFFENHOFEN
DE 587
Do 19.05. 04:509787 %1022
1024
953
OSO 1 (1)>= 10000  
OBERPFAFFENHOFEN
DE 587
Do 19.05. 04:209787 %1022
1024
953
NO 1 (2)>= 10000  
OBERPFAFFENHOFEN
DE 587
Do 19.05. 03:509787 %1022
1024
953
ONO 1 (2)>= 10000  
OBERPFAFFENHOFEN
DE 587
Do 19.05. 03:2010782 %1022
1023
953
NO 2 (3)
N - ONO
>= 10000  
OBERPFAFFENHOFEN
DE 587
Do 19.05. 02:5011776 %1022
1023
953
ONO 1 (2)>= 10000  
OBERPFAFFENHOFEN
DE 587
Do 19.05. 02:2011776 %1023
1024
954
Uml 1 (2)>= 10000  
OBERPFAFFENHOFEN
DE 587
Do 19.05. 01:5012876 %1023
1024
954
Uml 1 (1)>= 10000  
OBERPFAFFENHOFEN
DE 587
Do 19.05. 01:2012876 %1023
1024
954
Uml 1 (2)>= 10000  
OBERPFAFFENHOFEN
DE 587
Do 19.05. 00:5013872 %1023
1024
954
Uml 1 (2)>= 10000  
OBERPFAFFENHOFEN
DE 587
Do 19.05. 00:2012876 %1024
1025
955
O 2 (5)>= 10000  
OBERPFAFFENHOFEN
DE 587
Mi 18.05. 23:5014867 %1024
1024
955
O 2 (6)>= 10000  
OBERPFAFFENHOFEN
DE 587
Mi 18.05. 23:2014867 %1024
1024
955
O 2 (5)>= 10000  
OBERPFAFFENHOFEN
DE 587
Mi 18.05. 22:5015863 %1024
1024
955
OSO 2 (4)>= 10000  
OBERPFAFFENHOFEN
DE 587
Mi 18.05. 22:2015759 %1024
1024
955
O 2 (6)>= 10000  
OBERPFAFFENHOFEN
DE 587
Mi 18.05. 21:5016859 %1024
1024
955
O 2 (6)>= 10000  
OBERPFAFFENHOFEN
DE 587
Mi 18.05. 21:2018852 %1024
1023
955
O 3 (8)>= 10000  
OBERPFAFFENHOFEN
DE 587
Mi 18.05. 20:5018852 %1024
1023
955
O 3 (8)>= 10000  
OBERPFAFFENHOFEN
DE 587
Mi 18.05. 20:2019952 %1024
1023
955
ONO 2 (6)
NO - O
>= 10000Nicht signifikant 
OBERPFAFFENHOFEN
DE 587
Mi 18.05. 19:50201053 %1023
1022
954
ONO 3 (9)>= 10000Nicht signifikant 
OBERPFAFFENHOFEN
DE 587
Mi 18.05. 19:20211049 %1023
1022
954
NO 4 (11)>= 10000  
OBERPFAFFENHOFEN
DE 587
Mi 18.05. 18:50221046 %1023
1021
954
NO 4 (11)>= 10000  
OBERPFAFFENHOFEN
DE 587
Mi 18.05. 18:20221150 %1023
1021
954
NO 4 (11)>= 10000Nicht signifikant 
OBERPFAFFENHOFEN
DE 587
Mi 18.05. 17:50231147 %1023
1021
954
O 3 (10)
NO - OSO
>= 10000Nicht signifikant 
OBERPFAFFENHOFEN
DE 587
Mi 18.05. 17:20231147 %1023
1021
954
NO 3 (10)>= 10000Nicht signifikant 
OBERPFAFFENHOFEN
DE 587
Mi 18.05. 16:50231147 %1023
1021
954
ONO 3 (10)
NNO - OSO
>= 10000Nicht signifikant 
OBERPFAFFENHOFEN
DE 587
Mi 18.05. 16:20231250 %1023
1021
954
NO 4 (11)
NNO - O
>= 10000Nicht signifikant 

Altimeter: Einstellung am Altimeter (Höhenmesser), die Höhe 0 muss auf diesen Luftdruckwert zeigen, damit das Gerät die Stationshöhe richtig anzeigt.

NN: Luftdruck reduziert auf "Normal Null", auf Meereshöhe, dieser von der Temperatur abhängige Wert wird bisweilen unkorrekt einfach als "Luftdruck" bezeichnet. Eigentlich nur eine fiktive Größe, die es erlaubt, Stationen auf unterschiedlichen Höhen miteinander zu vergleichen.

Station: Realer Luftdruck an der Station.